Fuquay Varina, North Carolina
Current Conditions -  °F | °C
As of 10:35 AM on Friday 28 Nov 2014 (Local Time) from KHRJ Reporting Station
Clear Clear  
Wind Chill: 36°   Ceiling: Unl
Heat Index: 41°   Visibility: 10mi
Dew Point: 22°   Wind: 8mph
Humidity: 46%   Direction: 340°NNW
Pressure: 30.38"   Gusts: NA
Location:  35.59°N, 78.78°W
Report Text: KHRJ 281535Z AUTO 34007KT 10SM CLR 05/M05 A3038 RMK AO2 T00521055
Loading
Personal Weather Stations






























Interactive Weather Map New forecast layout! Learn more

10-Day Weather Forecast

Advertisements
Track Severe Weather on mobile